sensor_id;sensor_type;location;lat;lon;timestamp;P1;durP1;ratioP1;P2;durP2;ratioP2
55330;SDS011;58851;42.984;20.336;2023-10-08T00:00:43;35.17;;;17.73;;
55330;SDS011;58851;42.984;20.336;2023-10-08T00:03:14;33.58;;;18.65;;
55330;SDS011;58851;42.984;20.336;2023-10-08T00:05:45;35.47;;;18.85;;
55330;SDS011;58851;42.984;20.336;2023-10-08T00:08:12;26.48;;;15.82;;
55330;SDS011;58851;42.984;20.336;2023-10-08T00:10:41;29.23;;;15.23;;
55330;SDS011;58851;42.984;20.336;2023-10-08T00:13:08;22.80;;;15.35;;
55330;SDS011;58851;42.984;20.336;2023-10-08T00:15:38;24.20;;;14.95;;
55330;SDS011;58851;42.984;20.336;2023-10-08T00:18:21;33.38;;;18.00;;
55330;SDS011;58851;42.984;20.336;2023-10-08T00:20:50;26.58;;;16.90;;
55330;SDS011;58851;42.984;20.336;2023-10-08T00:23:46;24.80;;;15.95;;
55330;SDS011;58851;42.984;20.336;2023-10-08T00:26:20;21.30;;;14.05;;
55330;SDS011;58851;42.984;20.336;2023-10-08T00:31:21;21.00;;;11.20;;
55330;SDS011;58851;42.984;20.336;2023-10-08T00:33:52;20.90;;;12.30;;
55330;SDS011;58851;42.984;20.336;2023-10-08T00:36:18;28.40;;;16.60;;
55330;SDS011;58851;42.984;20.336;2023-10-08T00:38:45;25.20;;;14.68;;
55330;SDS011;58851;42.984;20.336;2023-10-08T00:41:14;23.25;;;13.52;;
55330;SDS011;58851;42.984;20.336;2023-10-08T00:43:41;22.17;;;12.02;;
55330;SDS011;58851;42.984;20.336;2023-10-08T00:46:09;20.20;;;12.13;;
55330;SDS011;58851;42.984;20.336;2023-10-08T00:48:54;17.67;;;12.30;;
55330;SDS011;58851;42.984;20.336;2023-10-08T00:51:21;19.75;;;13.23;;
55330;SDS011;58851;42.984;20.336;2023-10-08T00:53:49;26.50;;;13.70;;
55330;SDS011;58851;42.984;20.336;2023-10-08T00:56:36;16.65;;;11.07;;
55330;SDS011;58851;42.984;20.336;2023-10-08T00:59:20;17.48;;;12.98;;
55330;SDS011;58851;42.984;20.336;2023-10-08T01:01:46;17.80;;;12.55;;
55330;SDS011;58851;42.984;20.336;2023-10-08T01:04:24;19.33;;;11.50;;
55330;SDS011;58851;42.984;20.336;2023-10-08T01:07:00;23.83;;;14.93;;
55330;SDS011;58851;42.984;20.336;2023-10-08T01:09:35;23.08;;;12.45;;
55330;SDS011;58851;42.984;20.336;2023-10-08T01:14:59;29.98;;;15.55;;
55330;SDS011;58851;42.984;20.336;2023-10-08T01:17:43;32.28;;;15.55;;
55330;SDS011;58851;42.984;20.336;2023-10-08T01:20:17;24.23;;;13.18;;
55330;SDS011;58851;42.984;20.336;2023-10-08T01:23:15;18.52;;;11.55;;
55330;SDS011;58851;42.984;20.336;2023-10-08T01:25:46;21.80;;;12.52;;
55330;SDS011;58851;42.984;20.336;2023-10-08T01:28:31;14.93;;;10.48;;
55330;SDS011;58851;42.984;20.336;2023-10-08T01:30:58;18.35;;;10.35;;
55330;SDS011;58851;42.984;20.336;2023-10-08T01:33:29;20.85;;;10.13;;
55330;SDS011;58851;42.984;20.336;2023-10-08T01:35:57;17.05;;;10.75;;
55330;SDS011;58851;42.984;20.336;2023-10-08T01:38:29;18.42;;;10.25;;
55330;SDS011;58851;42.984;20.336;2023-10-08T01:40:56;17.55;;;11.15;;
55330;SDS011;58851;42.984;20.336;2023-10-08T01:43:22;16.73;;;10.82;;
55330;SDS011;58851;42.984;20.336;2023-10-08T01:45:48;14.18;;;9.80;;
55330;SDS011;58851;42.984;20.336;2023-10-08T01:48:16;15.25;;;9.85;;
55330;SDS011;58851;42.984;20.336;2023-10-08T01:50:53;14.77;;;9.82;;
55330;SDS011;58851;42.984;20.336;2023-10-08T01:53:26;17.17;;;10.18;;
55330;SDS011;58851;42.984;20.336;2023-10-08T01:55:52;16.90;;;11.70;;
55330;SDS011;58851;42.984;20.336;2023-10-08T01:58:19;15.25;;;9.82;;
55330;SDS011;58851;42.984;20.336;2023-10-08T02:00:48;12.38;;;9.95;;
55330;SDS011;58851;42.984;20.336;2023-10-08T02:03:15;16.58;;;8.85;;
55330;SDS011;58851;42.984;20.336;2023-10-08T02:05:43;12.00;;;8.43;;
55330;SDS011;58851;42.984;20.336;2023-10-08T02:08:12;13.90;;;8.90;;
55330;SDS011;58851;42.984;20.336;2023-10-08T02:10:39;20.05;;;9.45;;
55330;SDS011;58851;42.984;20.336;2023-10-08T02:13:07;13.70;;;8.55;;
55330;SDS011;58851;42.984;20.336;2023-10-08T02:15:33;14.60;;;9.63;;
55330;SDS011;58851;42.984;20.336;2023-10-08T02:18:01;14.15;;;8.57;;
55330;SDS011;58851;42.984;20.336;2023-10-08T02:20:28;11.98;;;8.85;;
55330;SDS011;58851;42.984;20.336;2023-10-08T02:22:54;15.20;;;8.90;;
55330;SDS011;58851;42.984;20.336;2023-10-08T02:25:20;14.80;;;8.63;;
55330;SDS011;58851;42.984;20.336;2023-10-08T02:27:48;14.57;;;10.30;;
55330;SDS011;58851;42.984;20.336;2023-10-08T02:30:14;13.32;;;8.43;;
55330;SDS011;58851;42.984;20.336;2023-10-08T02:32:40;14.27;;;8.25;;
55330;SDS011;58851;42.984;20.336;2023-10-08T02:35:09;14.48;;;8.05;;
55330;SDS011;58851;42.984;20.336;2023-10-08T02:37:36;13.02;;;9.13;;
55330;SDS011;58851;42.984;20.336;2023-10-08T02:40:08;12.80;;;9.50;;
55330;SDS011;58851;42.984;20.336;2023-10-08T02:43:06;11.02;;;7.82;;
55330;SDS011;58851;42.984;20.336;2023-10-08T02:45:34;12.15;;;7.55;;
55330;SDS011;58851;42.984;20.336;2023-10-08T02:48:03;11.43;;;8.07;;
55330;SDS011;58851;42.984;20.336;2023-10-08T02:50:37;13.40;;;7.47;;
55330;SDS011;58851;42.984;20.336;2023-10-08T02:53:04;10.82;;;8.45;;
55330;SDS011;58851;42.984;20.336;2023-10-08T02:55:35;11.57;;;7.78;;
55330;SDS011;58851;42.984;20.336;2023-10-08T02:58:01;11.45;;;7.70;;
55330;SDS011;58851;42.984;20.336;2023-10-08T03:00:28;10.98;;;7.78;;
55330;SDS011;58851;42.984;20.336;2023-10-08T03:03:00;11.95;;;7.30;;
55330;SDS011;58851;42.984;20.336;2023-10-08T03:05:27;12.13;;;7.28;;
55330;SDS011;58851;42.984;20.336;2023-10-08T03:08:01;10.67;;;7.27;;
55330;SDS011;58851;42.984;20.336;2023-10-08T03:10:35;9.48;;;7.13;;
55330;SDS011;58851;42.984;20.336;2023-10-08T03:13:07;10.93;;;7.95;;
55330;SDS011;58851;42.984;20.336;2023-10-08T03:15:35;10.70;;;7.00;;
55330;SDS011;58851;42.984;20.336;2023-10-08T03:18:20;11.90;;;7.20;;
55330;SDS011;58851;42.984;20.336;2023-10-08T03:20:46;11.10;;;7.40;;
55330;SDS011;58851;42.984;20.336;2023-10-08T03:23:14;11.27;;;7.35;;
55330;SDS011;58851;42.984;20.336;2023-10-08T03:25:58;10.93;;;7.88;;
55330;SDS011;58851;42.984;20.336;2023-10-08T03:28:26;13.52;;;8.02;;
55330;SDS011;58851;42.984;20.336;2023-10-08T03:30:54;16.20;;;9.50;;
55330;SDS011;58851;42.984;20.336;2023-10-08T03:33:33;19.40;;;11.00;;
55330;SDS011;58851;42.984;20.336;2023-10-08T03:36:01;13.93;;;9.50;;
55330;SDS011;58851;42.984;20.336;2023-10-08T03:38:46;13.35;;;8.27;;
55330;SDS011;58851;42.984;20.336;2023-10-08T03:41:16;11.32;;;8.38;;
55330;SDS011;58851;42.984;20.336;2023-10-08T03:43:43;15.25;;;7.68;;
55330;SDS011;58851;42.984;20.336;2023-10-08T03:46:26;11.82;;;7.05;;
55330;SDS011;58851;42.984;20.336;2023-10-08T03:49:06;9.70;;;6.95;;
55330;SDS011;58851;42.984;20.336;2023-10-08T03:51:39;10.40;;;6.60;;
55330;SDS011;58851;42.984;20.336;2023-10-08T03:54:06;11.40;;;7.38;;
55330;SDS011;58851;42.984;20.336;2023-10-08T03:56:44;13.40;;;8.45;;
55330;SDS011;58851;42.984;20.336;2023-10-08T03:59:14;11.05;;;7.28;;
55330;SDS011;58851;42.984;20.336;2023-10-08T04:02:00;10.07;;;7.10;;
55330;SDS011;58851;42.984;20.336;2023-10-08T04:04:47;10.82;;;7.60;;
55330;SDS011;58851;42.984;20.336;2023-10-08T04:07:22;12.57;;;7.90;;
55330;SDS011;58851;42.984;20.336;2023-10-08T04:10:09;9.60;;;7.18;;
55330;SDS011;58851;42.984;20.336;2023-10-08T04:12:38;22.08;;;11.48;;
55330;SDS011;58851;42.984;20.336;2023-10-08T04:15:09;13.02;;;8.45;;
55330;SDS011;58851;42.984;20.336;2023-10-08T04:17:37;10.25;;;7.55;;
55330;SDS011;58851;42.984;20.336;2023-10-08T04:20:10;13.05;;;9.32;;
55330;SDS011;58851;42.984;20.336;2023-10-08T04:22:55;11.13;;;8.98;;
55330;SDS011;58851;42.984;20.336;2023-10-08T04:25:21;12.20;;;7.82;;
55330;SDS011;58851;42.984;20.336;2023-10-08T04:27:47;10.88;;;7.05;;
55330;SDS011;58851;42.984;20.336;2023-10-08T04:30:15;10.88;;;7.30;;
55330;SDS011;58851;42.984;20.336;2023-10-08T04:32:41;9.48;;;7.35;;
55330;SDS011;58851;42.984;20.336;2023-10-08T04:35:07;11.32;;;8.27;;
55330;SDS011;58851;42.984;20.336;2023-10-08T04:37:40;9.98;;;6.70;;
55330;SDS011;58851;42.984;20.336;2023-10-08T04:40:06;9.93;;;6.88;;
55330;SDS011;58851;42.984;20.336;2023-10-08T04:42:41;12.05;;;6.80;;
55330;SDS011;58851;42.984;20.336;2023-10-08T04:45:10;10.18;;;7.32;;
55330;SDS011;58851;42.984;20.336;2023-10-08T04:47:39;11.68;;;7.88;;
55330;SDS011;58851;42.984;20.336;2023-10-08T04:50:08;10.95;;;7.28;;
55330;SDS011;58851;42.984;20.336;2023-10-08T04:52:40;12.95;;;6.97;;
55330;SDS011;58851;42.984;20.336;2023-10-08T04:55:23;12.13;;;7.28;;
55330;SDS011;58851;42.984;20.336;2023-10-08T04:57:54;11.32;;;6.78;;
55330;SDS011;58851;42.984;20.336;2023-10-08T05:00:20;10.25;;;7.15;;
55330;SDS011;58851;42.984;20.336;2023-10-08T05:03:05;13.90;;;6.72;;
55330;SDS011;58851;42.984;20.336;2023-10-08T05:05:38;12.05;;;8.07;;
55330;SDS011;58851;42.984;20.336;2023-10-08T05:08:40;11.50;;;7.78;;
55330;SDS011;58851;42.984;20.336;2023-10-08T05:11:21;12.25;;;7.43;;
55330;SDS011;58851;42.984;20.336;2023-10-08T05:14:11;11.18;;;7.53;;
55330;SDS011;58851;42.984;20.336;2023-10-08T05:16:56;10.57;;;6.85;;
55330;SDS011;58851;42.984;20.336;2023-10-08T05:19:37;10.95;;;6.35;;
55330;SDS011;58851;42.984;20.336;2023-10-08T05:22:10;13.85;;;6.95;;
55330;SDS011;58851;42.984;20.336;2023-10-08T05:24:57;11.85;;;8.13;;
55330;SDS011;58851;42.984;20.336;2023-10-08T05:27:44;10.57;;;6.05;;
55330;SDS011;58851;42.984;20.336;2023-10-08T05:30:14;11.32;;;7.57;;
55330;SDS011;58851;42.984;20.336;2023-10-08T05:35:43;11.23;;;7.50;;
55330;SDS011;58851;42.984;20.336;2023-10-08T05:41:03;11.82;;;7.80;;
55330;SDS011;58851;42.984;20.336;2023-10-08T05:43:31;14.20;;;7.57;;
55330;SDS011;58851;42.984;20.336;2023-10-08T05:46:09;14.80;;;9.95;;
55330;SDS011;58851;42.984;20.336;2023-10-08T05:48:44;16.88;;;9.43;;
55330;SDS011;58851;42.984;20.336;2023-10-08T05:51:16;28.30;;;17.02;;
55330;SDS011;58851;42.984;20.336;2023-10-08T05:54:09;21.50;;;14.32;;
55330;SDS011;58851;42.984;20.336;2023-10-08T05:56:50;23.05;;;16.13;;
55330;SDS011;58851;42.984;20.336;2023-10-08T05:59:38;16.55;;;12.82;;
55330;SDS011;58851;42.984;20.336;2023-10-08T06:04:58;26.83;;;17.65;;
55330;SDS011;58851;42.984;20.336;2023-10-08T06:07:51;23.45;;;16.95;;
55330;SDS011;58851;42.984;20.336;2023-10-08T06:10:19;21.83;;;15.90;;
55330;SDS011;58851;42.984;20.336;2023-10-08T06:13:13;33.30;;;18.20;;
55330;SDS011;58851;42.984;20.336;2023-10-08T06:15:50;32.83;;;19.25;;
55330;SDS011;58851;42.984;20.336;2023-10-08T06:18:20;27.75;;;17.65;;
55330;SDS011;58851;42.984;20.336;2023-10-08T06:20:54;18.98;;;13.30;;
55330;SDS011;58851;42.984;20.336;2023-10-08T06:23:24;30.05;;;16.00;;
55330;SDS011;58851;42.984;20.336;2023-10-08T06:25:51;25.08;;;18.00;;
55330;SDS011;58851;42.984;20.336;2023-10-08T06:28:30;19.85;;;14.27;;
55330;SDS011;58851;42.984;20.336;2023-10-08T06:31:00;19.50;;;12.23;;
55330;SDS011;58851;42.984;20.336;2023-10-08T06:33:28;28.13;;;14.43;;
55330;SDS011;58851;42.984;20.336;2023-10-08T06:35:58;18.90;;;12.95;;
55330;SDS011;58851;42.984;20.336;2023-10-08T06:38:38;19.17;;;12.68;;
55330;SDS011;58851;42.984;20.336;2023-10-08T06:41:06;18.38;;;11.73;;
55330;SDS011;58851;42.984;20.336;2023-10-08T06:43:46;16.67;;;11.50;;
55330;SDS011;58851;42.984;20.336;2023-10-08T06:46:28;22.48;;;14.32;;
55330;SDS011;58851;42.984;20.336;2023-10-08T06:49:07;23.23;;;13.02;;
55330;SDS011;58851;42.984;20.336;2023-10-08T06:51:40;21.25;;;14.77;;
55330;SDS011;58851;42.984;20.336;2023-10-08T06:54:10;19.65;;;13.00;;
55330;SDS011;58851;42.984;20.336;2023-10-08T06:56:39;22.55;;;14.10;;
55330;SDS011;58851;42.984;20.336;2023-10-08T06:59:12;23.48;;;13.70;;
55330;SDS011;58851;42.984;20.336;2023-10-08T07:01:38;23.45;;;14.70;;
55330;SDS011;58851;42.984;20.336;2023-10-08T07:04:04;18.40;;;12.35;;
55330;SDS011;58851;42.984;20.336;2023-10-08T07:06:40;25.35;;;12.25;;
55330;SDS011;58851;42.984;20.336;2023-10-08T07:09:08;17.27;;;11.20;;
55330;SDS011;58851;42.984;20.336;2023-10-08T07:11:50;13.60;;;9.88;;
55330;SDS011;58851;42.984;20.336;2023-10-08T07:14:23;16.73;;;10.50;;
55330;SDS011;58851;42.984;20.336;2023-10-08T07:16:53;15.70;;;10.05;;
55330;SDS011;58851;42.984;20.336;2023-10-08T07:19:20;18.83;;;11.07;;
55330;SDS011;58851;42.984;20.336;2023-10-08T07:21:49;23.65;;;14.95;;
55330;SDS011;58851;42.984;20.336;2023-10-08T07:24:19;27.00;;;17.25;;
55330;SDS011;58851;42.984;20.336;2023-10-08T07:26:47;19.58;;;13.57;;
55330;SDS011;58851;42.984;20.336;2023-10-08T07:29:15;20.23;;;14.02;;
55330;SDS011;58851;42.984;20.336;2023-10-08T07:31:42;21.38;;;14.25;;
55330;SDS011;58851;42.984;20.336;2023-10-08T07:34:14;23.48;;;12.52;;
55330;SDS011;58851;42.984;20.336;2023-10-08T07:36:41;26.63;;;14.55;;
55330;SDS011;58851;42.984;20.336;2023-10-08T07:39:08;28.00;;;15.52;;
55330;SDS011;58851;42.984;20.336;2023-10-08T07:41:48;24.05;;;16.00;;
55330;SDS011;58851;42.984;20.336;2023-10-08T07:44:14;26.02;;;14.35;;
55330;SDS011;58851;42.984;20.336;2023-10-08T07:46:40;23.38;;;14.98;;
55330;SDS011;58851;42.984;20.336;2023-10-08T07:49:06;21.40;;;14.38;;
55330;SDS011;58851;42.984;20.336;2023-10-08T07:51:32;13.55;;;9.88;;
55330;SDS011;58851;42.984;20.336;2023-10-08T07:53:59;16.17;;;11.55;;
55330;SDS011;58851;42.984;20.336;2023-10-08T07:56:26;14.55;;;10.40;;
55330;SDS011;58851;42.984;20.336;2023-10-08T07:58:52;18.05;;;12.48;;
55330;SDS011;58851;42.984;20.336;2023-10-08T08:01:20;21.65;;;12.35;;
55330;SDS011;58851;42.984;20.336;2023-10-08T08:03:49;23.80;;;13.95;;
55330;SDS011;58851;42.984;20.336;2023-10-08T08:06:16;24.30;;;14.70;;
55330;SDS011;58851;42.984;20.336;2023-10-08T08:08:42;22.70;;;14.88;;
55330;SDS011;58851;42.984;20.336;2023-10-08T08:11:09;27.55;;;22.45;;
55330;SDS011;58851;42.984;20.336;2023-10-08T08:13:42;25.63;;;18.83;;
55330;SDS011;58851;42.984;20.336;2023-10-08T08:16:10;29.52;;;18.30;;
55330;SDS011;58851;42.984;20.336;2023-10-08T08:18:46;32.03;;;23.83;;
55330;SDS011;58851;42.984;20.336;2023-10-08T08:21:14;32.50;;;23.88;;
55330;SDS011;58851;42.984;20.336;2023-10-08T08:23:44;19.80;;;13.38;;
55330;SDS011;58851;42.984;20.336;2023-10-08T08:26:17;27.73;;;13.98;;
55330;SDS011;58851;42.984;20.336;2023-10-08T08:28:57;26.15;;;15.68;;
55330;SDS011;58851;42.984;20.336;2023-10-08T08:31:25;22.45;;;14.07;;
55330;SDS011;58851;42.984;20.336;2023-10-08T08:33:52;16.67;;;10.40;;
55330;SDS011;58851;42.984;20.336;2023-10-08T08:36:21;15.98;;;9.25;;
55330;SDS011;58851;42.984;20.336;2023-10-08T08:38:51;15.80;;;9.55;;
55330;SDS011;58851;42.984;20.336;2023-10-08T08:41:18;17.38;;;11.98;;
55330;SDS011;58851;42.984;20.336;2023-10-08T08:43:49;18.90;;;12.45;;
55330;SDS011;58851;42.984;20.336;2023-10-08T08:46:30;18.08;;;12.65;;
55330;SDS011;58851;42.984;20.336;2023-10-08T08:49:00;16.80;;;10.93;;
55330;SDS011;58851;42.984;20.336;2023-10-08T08:51:32;17.45;;;10.90;;
55330;SDS011;58851;42.984;20.336;2023-10-08T08:54:00;15.07;;;8.23;;
55330;SDS011;58851;42.984;20.336;2023-10-08T08:56:31;14.35;;;8.93;;
55330;SDS011;58851;42.984;20.336;2023-10-08T08:59:06;11.32;;;7.68;;
55330;SDS011;58851;42.984;20.336;2023-10-08T09:01:36;13.35;;;7.60;;
55330;SDS011;58851;42.984;20.336;2023-10-08T09:04:04;16.15;;;9.82;;
55330;SDS011;58851;42.984;20.336;2023-10-08T09:06:32;14.95;;;9.43;;
55330;SDS011;58851;42.984;20.336;2023-10-08T09:09:00;18.15;;;9.20;;
55330;SDS011;58851;42.984;20.336;2023-10-08T09:11:49;12.43;;;7.10;;
55330;SDS011;58851;42.984;20.336;2023-10-08T09:14:20;14.20;;;8.27;;
55330;SDS011;58851;42.984;20.336;2023-10-08T09:16:47;11.52;;;7.72;;
55330;SDS011;58851;42.984;20.336;2023-10-08T09:19:15;12.85;;;6.75;;
55330;SDS011;58851;42.984;20.336;2023-10-08T09:24:32;13.63;;;9.45;;
55330;SDS011;58851;42.984;20.336;2023-10-08T09:27:00;14.05;;;7.85;;
55330;SDS011;58851;42.984;20.336;2023-10-08T09:29:27;14.70;;;8.32;;
55330;SDS011;58851;42.984;20.336;2023-10-08T09:31:56;11.40;;;6.80;;
55330;SDS011;58851;42.984;20.336;2023-10-08T09:34:29;14.23;;;8.93;;
55330;SDS011;58851;42.984;20.336;2023-10-08T09:36:56;15.93;;;8.55;;
55330;SDS011;58851;42.984;20.336;2023-10-08T09:39:25;13.35;;;8.32;;
55330;SDS011;58851;42.984;20.336;2023-10-08T09:41:57;16.52;;;9.15;;
55330;SDS011;58851;42.984;20.336;2023-10-08T09:44:23;12.80;;;8.50;;
55330;SDS011;58851;42.984;20.336;2023-10-08T09:46:53;11.90;;;6.90;;
55330;SDS011;58851;42.984;20.336;2023-10-08T09:49:33;11.77;;;6.72;;
55330;SDS011;58851;42.984;20.336;2023-10-08T09:52:09;17.23;;;7.10;;
55330;SDS011;58851;42.984;20.336;2023-10-08T09:54:44;18.02;;;8.38;;
55330;SDS011;58851;42.984;20.336;2023-10-08T09:57:20;11.82;;;5.13;;
55330;SDS011;58851;42.984;20.336;2023-10-08T09:59:50;13.02;;;5.25;;
55330;SDS011;58851;42.984;20.336;2023-10-08T10:02:16;9.52;;;4.47;;
55330;SDS011;58851;42.984;20.336;2023-10-08T10:04:48;9.60;;;4.53;;
55330;SDS011;58851;42.984;20.336;2023-10-08T10:07:19;11.60;;;4.78;;
55330;SDS011;58851;42.984;20.336;2023-10-08T10:09:54;10.05;;;4.47;;
55330;SDS011;58851;42.984;20.336;2023-10-08T10:12:26;16.02;;;8.73;;
55330;SDS011;58851;42.984;20.336;2023-10-08T10:14:54;13.32;;;6.28;;
55330;SDS011;58851;42.984;20.336;2023-10-08T10:17:22;17.73;;;8.48;;
55330;SDS011;58851;42.984;20.336;2023-10-08T10:19:57;10.57;;;4.88;;
55330;SDS011;58851;42.984;20.336;2023-10-08T10:24:54;19.90;;;4.25;;
55330;SDS011;58851;42.984;20.336;2023-10-08T10:27:21;10.23;;;4.25;;
55330;SDS011;58851;42.984;20.336;2023-10-08T10:29:47;13.52;;;5.20;;
55330;SDS011;58851;42.984;20.336;2023-10-08T10:32:13;16.20;;;4.47;;
55330;SDS011;58851;42.984;20.336;2023-10-08T10:34:43;13.32;;;3.65;;
55330;SDS011;58851;42.984;20.336;2023-10-08T10:37:12;13.43;;;4.32;;
55330;SDS011;58851;42.984;20.336;2023-10-08T10:40:19;14.60;;;5.55;;
55330;SDS011;58851;42.984;20.336;2023-10-08T10:42:38;21.40;;;6.90;;
55330;SDS011;58851;42.984;20.336;2023-10-08T10:45:15;15.38;;;7.03;;
55330;SDS011;58851;42.984;20.336;2023-10-08T10:48:01;17.33;;;5.22;;
55330;SDS011;58851;42.984;20.336;2023-10-08T10:50:47;16.17;;;6.68;;
55330;SDS011;58851;42.984;20.336;2023-10-08T10:53:33;11.40;;;5.88;;
55330;SDS011;58851;42.984;20.336;2023-10-08T10:56:10;20.55;;;5.57;;
55330;SDS011;58851;42.984;20.336;2023-10-08T10:58:43;9.48;;;5.22;;
55330;SDS011;58851;42.984;20.336;2023-10-08T11:01:22;18.73;;;4.50;;
55330;SDS011;58851;42.984;20.336;2023-10-08T11:03:55;15.60;;;4.90;;
55330;SDS011;58851;42.984;20.336;2023-10-08T11:06:24;13.18;;;5.75;;
55330;SDS011;58851;42.984;20.336;2023-10-08T11:08:52;15.77;;;4.63;;
55330;SDS011;58851;42.984;20.336;2023-10-08T11:11:19;11.18;;;4.43;;
55330;SDS011;58851;42.984;20.336;2023-10-08T11:13:55;17.17;;;4.93;;
55330;SDS011;58851;42.984;20.336;2023-10-08T11:16:25;25.48;;;5.07;;
55330;SDS011;58851;42.984;20.336;2023-10-08T11:18:52;28.88;;;5.40;;
55330;SDS011;58851;42.984;20.336;2023-10-08T11:21:23;19.45;;;5.80;;
55330;SDS011;58851;42.984;20.336;2023-10-08T11:23:50;10.40;;;5.28;;
55330;SDS011;58851;42.984;20.336;2023-10-08T11:26:35;13.98;;;4.80;;
55330;SDS011;58851;42.984;20.336;2023-10-08T11:29:05;14.75;;;5.05;;
55330;SDS011;58851;42.984;20.336;2023-10-08T11:31:35;13.43;;;4.72;;
55330;SDS011;58851;42.984;20.336;2023-10-08T11:34:03;11.70;;;5.32;;
55330;SDS011;58851;42.984;20.336;2023-10-08T11:36:35;16.20;;;7.60;;
55330;SDS011;58851;42.984;20.336;2023-10-08T11:39:13;18.27;;;9.88;;
55330;SDS011;58851;42.984;20.336;2023-10-08T11:44:56;14.98;;;6.35;;
55330;SDS011;58851;42.984;20.336;2023-10-08T11:47:27;20.25;;;9.20;;
55330;SDS011;58851;42.984;20.336;2023-10-08T11:50:01;20.60;;;5.70;;
55330;SDS011;58851;42.984;20.336;2023-10-08T11:52:41;17.45;;;6.93;;
55330;SDS011;58851;42.984;20.336;2023-10-08T11:55:08;14.25;;;6.80;;
55330;SDS011;58851;42.984;20.336;2023-10-08T11:57:39;20.02;;;7.97;;
55330;SDS011;58851;42.984;20.336;2023-10-08T12:00:11;18.40;;;9.55;;
55330;SDS011;58851;42.984;20.336;2023-10-08T12:02:45;26.65;;;13.85;;
55330;SDS011;58851;42.984;20.336;2023-10-08T12:05:11;25.63;;;10.75;;
55330;SDS011;58851;42.984;20.336;2023-10-08T12:07:47;18.58;;;6.95;;
55330;SDS011;58851;42.984;20.336;2023-10-08T12:10:17;42.23;;;19.23;;
55330;SDS011;58851;42.984;20.336;2023-10-08T12:12:53;24.52;;;11.70;;
55330;SDS011;58851;42.984;20.336;2023-10-08T12:15:25;25.60;;;7.28;;
55330;SDS011;58851;42.984;20.336;2023-10-08T12:18:03;19.15;;;6.82;;
55330;SDS011;58851;42.984;20.336;2023-10-08T12:20:49;28.88;;;7.13;;
55330;SDS011;58851;42.984;20.336;2023-10-08T12:23:16;24.05;;;7.15;;
55330;SDS011;58851;42.984;20.336;2023-10-08T12:25:50;12.85;;;5.78;;
55330;SDS011;58851;42.984;20.336;2023-10-08T12:28:18;9.25;;;4.22;;
55330;SDS011;58851;42.984;20.336;2023-10-08T12:30:44;19.27;;;4.03;;
55330;SDS011;58851;42.984;20.336;2023-10-08T12:33:10;14.50;;;3.60;;
55330;SDS011;58851;42.984;20.336;2023-10-08T12:35:40;17.08;;;6.35;;
55330;SDS011;58851;42.984;20.336;2023-10-08T12:38:09;13.82;;;6.35;;
55330;SDS011;58851;42.984;20.336;2023-10-08T12:40:35;16.30;;;5.18;;
55330;SDS011;58851;42.984;20.336;2023-10-08T12:43:12;11.20;;;3.72;;
55330;SDS011;58851;42.984;20.336;2023-10-08T12:45:39;20.58;;;5.97;;
55330;SDS011;58851;42.984;20.336;2023-10-08T12:48:04;15.50;;;4.35;;
55330;SDS011;58851;42.984;20.336;2023-10-08T12:50:30;21.55;;;9.35;;
55330;SDS011;58851;42.984;20.336;2023-10-08T12:53:10;18.10;;;5.10;;
55330;SDS011;58851;42.984;20.336;2023-10-08T12:55:40;16.63;;;5.05;;
55330;SDS011;58851;42.984;20.336;2023-10-08T12:58:06;14.18;;;5.43;;
55330;SDS011;58851;42.984;20.336;2023-10-08T13:00:36;16.17;;;5.35;;
55330;SDS011;58851;42.984;20.336;2023-10-08T13:03:06;24.05;;;9.13;;
55330;SDS011;58851;42.984;20.336;2023-10-08T13:05:48;35.88;;;8.52;;
55330;SDS011;58851;42.984;20.336;2023-10-08T13:08:20;19.73;;;7.65;;
55330;SDS011;58851;42.984;20.336;2023-10-08T13:10:46;20.27;;;8.70;;
55330;SDS011;58851;42.984;20.336;2023-10-08T13:13:12;14.05;;;6.35;;
55330;SDS011;58851;42.984;20.336;2023-10-08T13:15:39;22.88;;;7.10;;
55330;SDS011;58851;42.984;20.336;2023-10-08T13:18:07;30.10;;;14.30;;
55330;SDS011;58851;42.984;20.336;2023-10-08T13:20:33;27.15;;;12.63;;
55330;SDS011;58851;42.984;20.336;2023-10-08T13:23:02;20.08;;;9.20;;
55330;SDS011;58851;42.984;20.336;2023-10-08T13:25:31;44.30;;;25.02;;
55330;SDS011;58851;42.984;20.336;2023-10-08T13:28:01;37.20;;;17.85;;
55330;SDS011;58851;42.984;20.336;2023-10-08T13:30:27;19.23;;;7.82;;
55330;SDS011;58851;42.984;20.336;2023-10-08T13:32:53;18.52;;;9.25;;
55330;SDS011;58851;42.984;20.336;2023-10-08T13:35:19;14.68;;;5.03;;
55330;SDS011;58851;42.984;20.336;2023-10-08T13:37:45;14.88;;;5.55;;
55330;SDS011;58851;42.984;20.336;2023-10-08T13:40:14;24.27;;;7.80;;
55330;SDS011;58851;42.984;20.336;2023-10-08T13:42:43;18.10;;;6.25;;
55330;SDS011;58851;42.984;20.336;2023-10-08T13:45:10;14.25;;;6.18;;
55330;SDS011;58851;42.984;20.336;2023-10-08T13:47:41;26.55;;;5.90;;
55330;SDS011;58851;42.984;20.336;2023-10-08T13:50:07;16.00;;;5.40;;
55330;SDS011;58851;42.984;20.336;2023-10-08T13:52:36;11.82;;;5.32;;
55330;SDS011;58851;42.984;20.336;2023-10-08T13:55:05;22.35;;;7.10;;
55330;SDS011;58851;42.984;20.336;2023-10-08T13:57:32;22.90;;;5.88;;
55330;SDS011;58851;42.984;20.336;2023-10-08T13:59:58;14.95;;;5.60;;
55330;SDS011;58851;42.984;20.336;2023-10-08T14:02:25;14.02;;;4.93;;
55330;SDS011;58851;42.984;20.336;2023-10-08T14:04:51;26.70;;;6.40;;
55330;SDS011;58851;42.984;20.336;2023-10-08T14:07:18;16.58;;;6.15;;
55330;SDS011;58851;42.984;20.336;2023-10-08T14:09:45;14.95;;;6.07;;
55330;SDS011;58851;42.984;20.336;2023-10-08T14:12:11;14.55;;;5.63;;
55330;SDS011;58851;42.984;20.336;2023-10-08T14:14:39;19.00;;;8.65;;
55330;SDS011;58851;42.984;20.336;2023-10-08T14:17:11;19.02;;;6.95;;
55330;SDS011;58851;42.984;20.336;2023-10-08T14:19:41;16.23;;;5.45;;
55330;SDS011;58851;42.984;20.336;2023-10-08T14:22:17;14.95;;;5.43;;
55330;SDS011;58851;42.984;20.336;2023-10-08T14:24:47;13.07;;;5.07;;
55330;SDS011;58851;42.984;20.336;2023-10-08T14:27:24;10.32;;;4.72;;
55330;SDS011;58851;42.984;20.336;2023-10-08T14:29:56;12.48;;;4.40;;
55330;SDS011;58851;42.984;20.336;2023-10-08T14:32:26;11.13;;;4.95;;
55330;SDS011;58851;42.984;20.336;2023-10-08T14:34:53;19.23;;;5.15;;
55330;SDS011;58851;42.984;20.336;2023-10-08T14:37:19;16.55;;;5.68;;
55330;SDS011;58851;42.984;20.336;2023-10-08T14:40:04;22.17;;;6.47;;
55330;SDS011;58851;42.984;20.336;2023-10-08T14:42:48;17.10;;;6.03;;
55330;SDS011;58851;42.984;20.336;2023-10-08T14:45:27;15.80;;;6.03;;
55330;SDS011;58851;42.984;20.336;2023-10-08T14:47:56;19.73;;;6.82;;
55330;SDS011;58851;42.984;20.336;2023-10-08T14:50:23;21.80;;;8.13;;
55330;SDS011;58851;42.984;20.336;2023-10-08T14:52:53;20.13;;;8.30;;
55330;SDS011;58851;42.984;20.336;2023-10-08T14:55:20;21.52;;;8.00;;
55330;SDS011;58851;42.984;20.336;2023-10-08T14:57:47;16.83;;;7.10;;
55330;SDS011;58851;42.984;20.336;2023-10-08T15:00:18;19.70;;;7.85;;
55330;SDS011;58851;42.984;20.336;2023-10-08T15:02:52;24.08;;;8.68;;
55330;SDS011;58851;42.984;20.336;2023-10-08T15:05:19;27.02;;;9.18;;
55330;SDS011;58851;42.984;20.336;2023-10-08T15:07:47;28.23;;;8.35;;